Time;durP1;ratioP1;P1;durP2;ratioP2;P2;SDS_P1;SDS_P2;PMS_P1;PMS_P2;Temp;Humidity;BMP_temperature;BMP_pressure;BME280_temperature;BME280_humidity;BME280_pressure;Samples;Min_cycle;Max_cycle;Signal;HPM_P1;HPM_P2
2022/11/16 00:01:17;;;;;;;11.88;10.60;;;10.60;99.90;;;;;;5015091;28;20139;-67
2022/11/16 00:03:43;;;;;;;11.70;10.50;;;10.60;99.90;;;;;;5066240;28;20106;-67
2022/11/16 00:06:11;;;;;;;12.77;7.95;;;10.60;99.90;;;;;;5047407;28;20044;-68
2022/11/16 00:08:42;;;;;;;15.27;11.45;;;10.60;99.90;;;;;;5066009;28;20037;-67
2022/11/16 00:11:11;;;;;;;16.15;11.20;;;11.20;99.90;;;;;;5046491;28;20058;-67
2022/11/16 00:13:38;;;;;;;15.63;11.35;;;10.50;99.90;;;;;;5030744;28;20048;-67
2022/11/16 00:16:04;;;;;;;15.63;11.60;;;11.20;99.90;;;;;;5030747;28;20038;-66
2022/11/16 00:18:30;;;;;;;15.60;10.18;;;10.90;99.90;;;;;;5045468;28;20052;-68
2022/11/16 00:20:56;;;;;;;14.02;9.52;;;10.70;99.90;;;;;;5063671;28;20068;-66
2022/11/16 00:23:22;;;;;;;15.82;10.75;;;11.00;99.90;;;;;;5065298;28;20032;-66
2022/11/16 00:25:48;;;;;;;15.30;11.23;;;11.20;99.90;;;;;;5047041;28;20056;-67
2022/11/16 00:28:14;;;;;;;19.00;12.23;;;11.20;99.90;;;;;;4997519;28;20335;-68
2022/11/16 00:30:40;;;;;;;14.13;9.13;;;10.70;99.90;;;;;;5064271;28;20643;-67
2022/11/16 00:33:07;;;;;;;18.42;11.75;;;10.80;99.90;;;;;;5045113;28;20577;-66
2022/11/16 00:35:38;;;;;;;10.75;7.95;;;10.70;99.90;;;;;;5045902;28;20036;-68
2022/11/16 00:38:04;;;;;;;17.95;12.15;;;11.30;99.90;;;;;;5028769;28;20086;-66
2022/11/16 00:40:30;;;;;;;14.38;10.60;;;10.60;99.90;;;;;;5045678;28;20963;-66
2022/11/16 00:42:56;;;;;;;12.30;9.40;;;10.70;99.90;;;;;;5045071;28;20044;-67
2022/11/16 00:45:21;;;;;;;15.35;10.90;;;11.00;99.90;;;;;;5027402;28;20049;-67
2022/11/16 00:47:47;;;;;;;11.30;8.38;;;11.00;99.90;;;;;;5027198;28;20051;-66
2022/11/16 00:50:13;;;;;;;17.25;11.35;;;11.20;99.90;;;;;;5025426;28;20550;-68
2022/11/16 00:52:38;;;;;;;13.95;11.43;;;11.20;99.90;;;;;;5044102;28;20159;-67
2022/11/16 00:55:04;;;;;;;13.13;10.23;;;10.80;99.90;;;;;;5003876;28;20064;-67
2022/11/16 00:57:31;;;;;;;17.60;13.10;;;11.20;99.90;;;;;;5062867;28;20044;-67
2022/11/16 00:59:57;;;;;;;14.45;12.73;;;10.60;99.90;;;;;;5061645;28;20490;-67
2022/11/16 01:02:22;;;;;;;16.55;12.88;;;10.60;99.90;;;;;;5011096;28;20041;-67
2022/11/16 01:04:48;;;;;;;14.90;13.13;;;10.80;99.90;;;;;;5027076;28;20044;-67
2022/11/16 01:07:13;;;;;;;18.00;14.05;;;11.00;99.90;;;;;;5028307;28;20488;-68
2022/11/16 01:09:39;;;;;;;18.23;13.65;;;11.20;99.90;;;;;;5040836;28;20495;-67
2022/11/16 01:12:07;;;;;;;16.95;15.13;;;11.20;99.90;;;;;;5037768;28;20044;-66
2022/11/16 01:14:39;;;;;;;20.48;18.27;;;10.60;99.90;;;;;;4993310;28;20044;-66
2022/11/16 01:17:05;;;;;;;19.23;17.05;;;10.70;99.90;;;;;;5053976;28;20055;-66
2022/11/16 01:19:30;;;;;;;22.63;19.10;;;11.20;99.90;;;;;;5022342;28;20138;-65
2022/11/16 01:21:57;;;;;;;21.17;18.98;;;10.70;99.90;;;;;;5036800;28;20090;-66
2022/11/16 01:24:24;;;;;;;20.52;18.27;;;10.50;99.90;;;;;;5054457;28;20056;-65
2022/11/16 01:26:50;;;;;;;17.52;15.32;;;10.50;99.90;;;;;;5056091;28;20068;-66
2022/11/16 01:29:16;;;;;;;17.75;15.85;;;10.80;99.90;;;;;;5039410;28;20136;-65
2022/11/16 01:31:42;;;;;;;14.32;12.82;;;10.60;99.90;;;;;;5055089;28;20048;-66
2022/11/16 01:34:08;;;;;;;12.50;10.50;;;10.60;99.90;;;;;;5037652;28;20052;-65
2022/11/16 01:36:35;;;;;;;14.73;11.02;;;11.40;99.90;;;;;;5018646;28;20040;-65
2022/11/16 01:39:03;;;;;;;15.05;11.60;;;10.80;99.90;;;;;;5037294;28;20131;-66
2022/11/16 01:41:29;;;;;;;13.40;9.80;;;11.10;99.90;;;;;;5038647;28;20041;-65
2022/11/16 01:44:00;;;;;;;12.10;10.77;;;11.20;99.90;;;;;;5037882;28;20567;-66
2022/11/16 01:46:27;;;;;;;11.20;9.63;;;10.90;99.90;;;;;;5055955;28;20035;-65
2022/11/16 01:49:15;;;;;;;12.55;9.15;;;11.30;99.90;;;;;;5037409;28;20143;-65
2022/11/16 01:51:45;;;;;;;14.52;10.25;;;11.30;99.90;;;;;;5037289;28;20059;-65
2022/11/16 01:54:12;;;;;;;14.48;10.90;;;10.80;99.90;;;;;;5036846;28;20052;-65
2022/11/16 01:56:40;;;;;;;14.45;11.02;;;11.10;99.90;;;;;;5036385;28;20073;-65
2022/11/16 01:59:06;;;;;;;14.77;9.98;;;11.50;99.90;;;;;;5056163;28;20040;-65
2022/11/16 02:01:32;;;;;;;13.70;11.20;;;11.20;99.90;;;;;;5021231;28;20531;-65
2022/11/16 02:03:58;;;;;;;14.20;10.52;;;10.80;99.90;;;;;;5038954;28;20089;-65
2022/11/16 02:06:26;;;;;;;17.95;11.18;;;11.10;99.90;;;;;;5060254;28;20041;-65
2022/11/16 02:12:10;;;;;;;13.10;8.90;;;11.10;99.90;;;;;;5059478;28;20058;-65
2022/11/16 02:15:04;;;;;;;13.95;8.05;;;10.90;99.90;;;;;;5024781;28;20047;-65
2022/11/16 02:17:58;;;;;;;12.70;7.70;;;10.90;99.90;;;;;;5041240;28;20032;-67
2022/11/16 02:20:43;;;;;;;10.13;6.03;;;10.60;99.90;;;;;;5041994;28;20051;-64
2022/11/16 02:23:15;;;;;;;10.73;6.18;;;11.40;99.90;;;;;;5042858;28;20052;-63
2022/11/16 02:26:19;;;;;;;16.17;11.20;;;10.90;99.90;;;;;;5052328;28;20028;-65
2022/11/16 02:28:45;;;;;;;;;;;11.40;99.90;;;;;;5070804;28;20053;-65
2022/11/16 02:31:19;;;;;;;14.85;10.57;;;11.10;99.90;;;;;;5053653;28;19923;-65
2022/11/16 02:33:48;;;;;;;17.02;9.70;;;11.00;99.90;;;;;;5052727;28;20055;-65
2022/11/16 02:36:19;;;;;;;16.35;11.43;;;10.60;99.90;;;;;;5006513;28;20043;-65
2022/11/16 02:38:56;;;;;;;18.95;12.35;;;10.60;99.90;;;;;;5052334;28;20064;-65
2022/11/16 02:41:25;;;;;;;15.52;9.45;;;10.60;99.90;;;;;;5052064;28;20048;-65
2022/11/16 02:44:13;;;;;;;14.20;9.77;;;10.40;99.90;;;;;;5051910;28;20765;-65
2022/11/16 02:46:42;;;;;;;13.55;9.65;;;11.10;99.90;;;;;;5069688;28;20036;-66
2022/11/16 02:49:17;;;;;;;14.23;10.07;;;11.20;99.90;;;;;;5051027;28;20048;-65
2022/11/16 02:51:46;;;;;;;10.23;8.77;;;11.20;99.90;;;;;;5053373;28;20045;-65
2022/11/16 02:54:30;;;;;;;14.43;9.45;;;11.10;99.90;;;;;;5052530;28;20045;-64
2022/11/16 02:57:02;;;;;;;14.45;9.25;;;11.20;99.90;;;;;;5051904;28;20058;-65
2022/11/16 02:59:38;;;;;;;15.32;10.95;;;11.10;99.90;;;;;;5052391;28;20085;-65
2022/11/16 03:02:22;;;;;;;14.98;11.48;;;10.40;99.90;;;;;;5051840;28;20040;-65
2022/11/16 03:05:08;;;;;;;17.77;10.25;;;10.70;99.90;;;;;;5034751;28;21137;-65
2022/11/16 03:07:48;;;;;;;13.02;8.20;;;10.40;99.90;;;;;;5070042;28;20083;-65
2022/11/16 03:11:58;;;;;;;17.08;10.25;;;11.20;99.90;;;;;;5051063;28;20413;-65
2022/11/16 03:13:04;;;;;;;15.13;9.45;;;10.40;99.90;;;;;;5051457;28;20126;-65
2022/11/16 03:15:30;;;;;;;16.90;10.00;;;10.40;99.90;;;;;;5067829;28;20059;-65
2022/11/16 03:17:58;;;;;;;10.20;4.97;;;11.00;99.90;;;;;;5051464;28;20036;-64
2022/11/16 03:20:28;;;;;;;11.77;8.38;;;10.20;99.90;;;;;;5034722;28;20048;-64
2022/11/16 03:22:59;;;;;;;10.85;6.35;;;10.20;99.90;;;;;;5068925;28;20050;-65
2022/11/16 03:25:30;;;;;;;16.55;10.25;;;10.20;99.90;;;;;;5051160;28;20071;-64
2022/11/16 03:28:33;;;;;;;14.50;10.10;;;10.20;99.90;;;;;;5068351;28;20115;-65
2022/11/16 03:31:08;;;;;;;18.75;9.98;;;10.90;99.90;;;;;;5051463;28;20076;-65
2022/11/16 03:33:38;;;;;;;14.77;9.50;;;10.60;99.90;;;;;;5069297;28;20051;-65
2022/11/16 03:36:16;;;;;;;20.67;10.52;;;10.90;99.90;;;;;;5051926;28;20048;-64
2022/11/16 03:38:44;;;;;;;22.55;13.07;;;10.90;99.90;;;;;;5067799;28;20060;-65
2022/11/16 03:41:11;;;;;;;20.00;12.43;;;10.90;99.90;;;;;;5033851;28;20577;-64
2022/11/16 03:43:39;;;;;;;21.88;11.88;;;10.30;99.90;;;;;;5050052;28;20051;-65
2022/11/16 03:46:05;;;;;;;19.48;10.88;;;10.30;99.90;;;;;;5050057;28;20048;-65
2022/11/16 03:48:35;;;;;;;23.50;13.68;;;10.40;99.90;;;;;;5050585;28;20124;-66
2022/11/16 03:51:02;;;;;;;21.73;13.25;;;10.90;99.90;;;;;;5068992;28;20048;-64
2022/11/16 03:53:28;;;;;;;17.75;13.63;;;10.80;99.90;;;;;;5033760;28;20053;-64
2022/11/16 03:55:53;;;;;;;17.95;12.70;;;10.50;99.90;;;;;;5051806;28;20055;-65
2022/11/16 03:58:19;;;;;;;16.25;12.93;;;10.50;99.90;;;;;;5033412;28;20082;-64
2022/11/16 04:00:45;;;;;;;14.10;12.70;;;11.00;99.90;;;;;;5051502;28;20075;-65
2022/11/16 04:03:11;;;;;;;16.95;14.77;;;10.30;99.90;;;;;;5051042;28;20109;-64
2022/11/16 04:24:58;;;;;;;12.93;9.48;;;10.70;99.90;;;;;;5048523;28;20060;-65
2022/11/16 04:30:12;;;;;;;17.08;12.57;;;11.00;99.90;;;;;;5049935;28;20065;-64
2022/11/16 04:38:06;;;;;;;13.07;9.65;;;10.90;99.90;;;;;;5036320;28;20101;-65
2022/11/16 04:40:32;;;;;;;22.33;15.02;;;10.80;99.90;;;;;;5033193;28;20048;-66
2022/11/16 04:43:02;;;;;;;18.02;12.27;;;10.80;99.90;;;;;;5033072;28;20391;-66
2022/11/16 04:48:15;;;;;;;18.10;12.77;;;10.10;99.90;;;;;;5049915;28;20076;-65
2022/11/16 04:50:41;;;;;;;16.50;10.45;;;10.10;99.90;;;;;;5033514;28;20051;-66
2022/11/16 04:53:07;;;;;;;15.95;11.32;;;10.80;99.90;;;;;;5034107;28;20225;-64
2022/11/16 04:55:33;;;;;;;24.60;16.08;;;10.30;99.90;;;;;;5050639;28;20119;-65
2022/11/16 04:57:59;;;;;;;26.83;16.50;;;10.80;99.90;;;;;;5033218;28;20044;-65
2022/11/16 05:00:25;;;;;;;31.42;18.77;;;9.90;99.90;;;;;;5033771;28;20067;-64
2022/11/16 05:02:51;;;;;;;39.60;21.80;;;10.50;99.90;;;;;;5049933;28;20040;-65
2022/11/16 05:05:17;;;;;;;27.23;16.55;;;10.60;99.90;;;;;;5066648;28;20047;-65
2022/11/16 05:07:43;;;;;;;32.42;21.10;;;10.20;99.90;;;;;;5068140;28;20343;-64
2022/11/16 05:10:10;;;;;;;30.48;24.70;;;10.20;99.90;;;;;;5068468;28;20037;-65
2022/11/16 05:12:36;;;;;;;36.13;29.35;;;9.90;99.90;;;;;;5049520;28;20044;-65
2022/11/16 05:15:02;;;;;;;45.22;39.55;;;9.90;99.90;;;;;;5032854;28;20040;-64
2022/11/16 05:17:28;;;;;;;42.83;34.60;;;10.10;99.90;;;;;;5050267;28;20375;-64
2022/11/16 05:22:38;;;;;;;26.50;20.55;;;10.40;99.90;;;;;;5048269;28;20386;-64
2022/11/16 05:25:06;;;;;;;32.53;27.02;;;9.90;99.90;;;;;;5049277;28;20076;-66
2022/11/16 05:27:32;;;;;;;35.90;31.45;;;9.80;99.90;;;;;;5067558;28;20052;-66
2022/11/16 05:29:58;;;;;;;21.70;18.35;;;9.90;99.90;;;;;;5049794;28;20033;-66
2022/11/16 05:32:24;;;;;;;33.38;27.27;;;10.70;99.90;;;;;;5050282;28;21036;-65
2022/11/16 05:34:50;;;;;;;29.42;23.52;;;10.20;99.90;;;;;;5065636;28;20084;-66
2022/11/16 05:37:16;;;;;;;28.75;24.02;;;10.40;99.90;;;;;;5032804;28;20098;-65
2022/11/16 05:39:42;;;;;;;31.50;25.05;;;10.70;99.90;;;;;;5032185;28;20028;-66
2022/11/16 05:42:09;;;;;;;23.50;19.48;;;10.10;99.90;;;;;;5049516;28;20060;-66
2022/11/16 05:44:34;;;;;;;36.15;31.77;;;10.00;99.90;;;;;;5031572;28;20087;-66
2022/11/16 05:47:00;;;;;;;27.45;21.08;;;10.70;99.90;;;;;;5032275;28;20094;-65
2022/11/16 05:49:26;;;;;;;28.70;23.55;;;9.80;99.90;;;;;;5048967;28;20036;-65
2022/11/16 05:51:52;;;;;;;35.58;29.38;;;9.90;99.90;;;;;;5049555;28;20040;-66
2022/11/16 05:54:21;;;;;;;30.20;26.83;;;10.50;99.90;;;;;;5032298;28;20099;-66
2022/11/16 05:56:48;;;;;;;27.30;24.40;;;9.80;99.90;;;;;;5037558;28;20482;-65
2022/11/16 05:59:15;;;;;;;31.17;26.30;;;10.70;99.90;;;;;;5049537;28;20419;-66
2022/11/16 06:01:41;;;;;;;32.30;27.85;;;10.30;99.90;;;;;;5033553;28;20498;-67
2022/11/16 06:04:07;;;;;;;26.05;22.35;;;10.70;99.90;;;;;;5031965;28;20041;-65
2022/11/16 06:06:33;;;;;;;33.75;30.05;;;9.90;99.90;;;;;;5067109;28;20032;-67
2022/11/16 06:08:59;;;;;;;30.08;26.50;;;9.80;99.90;;;;;;5049629;28;20504;-65
2022/11/16 06:11:25;;;;;;;27.63;23.23;;;9.90;99.90;;;;;;5046537;28;20463;-67
2022/11/16 06:13:50;;;;;;;28.35;25.25;;;10.70;99.90;;;;;;5038338;28;20493;-67
2022/11/16 06:16:16;;;;;;;28.38;25.30;;;10.10;99.90;;;;;;5038295;28;20048;-66
2022/11/16 06:18:44;;;;;;;28.75;25.00;;;10.10;99.90;;;;;;5037446;28;20029;-66
2022/11/16 06:21:10;;;;;;;38.15;32.80;;;9.90;99.90;;;;;;5053985;28;20041;-66
2022/11/16 06:23:36;;;;;;;42.10;36.80;;;10.70;99.90;;;;;;5055844;28;20033;-68
2022/11/16 06:26:02;;;;;;;47.65;40.58;;;9.80;99.90;;;;;;5036094;28;20151;-67
2022/11/16 06:28:28;;;;;;;51.08;44.53;;;10.20;99.90;;;;;;5022165;28;20838;-67
2022/11/16 06:30:54;;;;;;;57.38;48.08;;;9.80;99.90;;;;;;5055910;28;20040;-68
2022/11/16 06:33:20;;;;;;;66.07;55.38;;;10.00;99.90;;;;;;5038281;28;20048;-68
2022/11/16 06:35:46;;;;;;;68.15;56.50;;;10.00;99.90;;;;;;5020795;28;20391;-68
2022/11/16 06:38:17;;;;;;;38.50;32.60;;;10.20;99.90;;;;;;5036144;28;20051;-68
2022/11/16 06:40:50;;;;;;;41.75;35.85;;;10.00;99.90;;;;;;5017992;28;20597;-67
2022/11/16 06:43:16;;;;;;;32.88;26.90;;;10.70;99.90;;;;;;5035542;28;20041;-67
2022/11/16 06:45:42;;;;;;;24.88;22.23;;;10.70;99.90;;;;;;5035437;28;20063;-67
2022/11/16 06:48:07;;;;;;;21.48;19.08;;;9.90;99.90;;;;;;5055228;28;20869;-68
2022/11/16 06:50:33;;;;;;;20.63;18.00;;;10.70;99.90;;;;;;5019853;28;20047;-67
2022/11/16 06:53:02;;;;;;;24.30;21.73;;;10.80;99.90;;;;;;5035224;28;20104;-68
2022/11/16 06:55:28;;;;;;;27.40;24.05;;;10.60;99.90;;;;;;5020762;28;20508;-68
2022/11/16 06:57:54;;;;;;;24.83;22.33;;;10.60;99.90;;;;;;5018200;28;20047;-68
2022/11/16 07:00:20;;;;;;;25.98;23.23;;;9.70;99.90;;;;;;5038145;28;20252;-68
2022/11/16 07:02:45;;;;;;;25.10;22.58;;;9.90;99.90;;;;;;5036708;28;20395;-68
2022/11/16 07:05:11;;;;;;;27.08;24.15;;;10.70;99.90;;;;;;5034407;28;20127;-68
2022/11/16 07:07:37;;;;;;;26.35;23.52;;;10.40;99.90;;;;;;5039151;28;20037;-68
2022/11/16 07:10:03;;;;;;;29.05;24.67;;;9.90;99.90;;;;;;5016867;28;20037;-68
2022/11/16 07:12:29;;;;;;;28.00;24.00;;;10.60;99.90;;;;;;5018207;28;20048;-69
2022/11/16 07:14:54;;;;;;;24.58;19.88;;;10.00;99.90;;;;;;5019665;28;20049;-68
2022/11/16 07:17:20;;;;;;;26.50;23.58;;;10.60;99.90;;;;;;5020409;28;20065;-69
2022/11/16 07:19:46;;;;;;;28.30;24.17;;;10.10;99.90;;;;;;5020014;28;20040;-69
2022/11/16 07:22:11;;;;;;;28.77;25.67;;;10.70;99.90;;;;;;5035794;28;20037;-70
2022/11/16 07:24:37;;;;;;;30.33;25.40;;;10.40;99.90;;;;;;5036264;28;20148;-70
2022/11/16 07:27:03;;;;;;;27.65;24.42;;;10.50;99.90;;;;;;5019855;28;20188;-71
2022/11/16 07:29:29;;;;;;;31.60;25.60;;;10.70;99.90;;;;;;5021783;28;20455;-70
2022/11/16 07:31:55;;;;;;;28.33;24.40;;;10.50;99.90;;;;;;5022273;28;20395;-70
2022/11/16 07:34:20;;;;;;;27.52;24.27;;;9.90;99.90;;;;;;5038327;28;20212;-69
2022/11/16 07:36:46;;;;;;;28.60;25.58;;;10.70;99.90;;;;;;5018953;28;20037;-69
2022/11/16 07:39:12;;;;;;;25.73;22.77;;;10.30;99.90;;;;;;5028818;28;20029;-67
2022/11/16 07:41:37;;;;;;;27.63;24.20;;;9.90;99.90;;;;;;5037015;28;20049;-70
2022/11/16 07:44:04;;;;;;;30.25;25.92;;;10.00;99.90;;;;;;5001513;28;20472;-70
2022/11/16 07:46:30;;;;;;;31.15;26.02;;;10.40;99.90;;;;;;5035692;28;20394;-70
2022/11/16 07:48:56;;;;;;;31.45;27.35;;;10.10;99.90;;;;;;5018934;28;20040;-70
2022/11/16 07:51:22;;;;;;;29.88;26.65;;;10.80;99.90;;;;;;5018309;28;20045;-71
2022/11/16 07:53:52;;;;;;;27.77;24.88;;;10.40;99.90;;;;;;5021508;28;20384;-69
2022/11/16 07:56:17;;;;;;;37.92;30.52;;;10.50;99.90;;;;;;5035095;28;20057;-70
2022/11/16 07:58:44;;;;;;;33.33;29.67;;;10.70;99.90;;;;;;5016875;28;20040;-69
2022/11/16 08:01:14;;;;;;;37.55;31.08;;;10.90;99.90;;;;;;5036351;28;20399;-68
2022/11/16 08:03:42;;;;;;;34.10;29.02;;;10.10;99.90;;;;;;5019687;28;20655;-68
2022/11/16 08:06:17;;;;;;;32.10;28.60;;;10.40;99.90;;;;;;5017693;28;20055;-68
2022/11/16 08:08:43;;;;;;;25.20;22.70;;;10.40;99.90;;;;;;5017860;28;20044;-69
2022/11/16 08:11:11;;;;;;;14.30;12.90;;;10.20;99.90;;;;;;5017925;28;20437;-68
2022/11/16 08:13:38;;;;;;;19.15;17.35;;;9.90;99.90;;;;;;5030885;28;20064;-70
2022/11/16 08:16:10;;;;;;;20.33;18.42;;;10.80;99.90;;;;;;5033992;28;20052;-67
2022/11/16 08:18:36;;;;;;;25.45;22.88;;;10.00;99.90;;;;;;5033735;28;20041;-69
2022/11/16 08:21:04;;;;;;;28.67;25.70;;;9.90;99.90;;;;;;5017842;28;20074;-68
2022/11/16 08:23:30;;;;;;;30.70;27.35;;;9.90;99.90;;;;;;5032582;28;20040;-67
2022/11/16 08:26:01;;;;;;;24.80;22.40;;;10.10;99.90;;;;;;5033851;28;20044;-69
2022/11/16 08:28:28;;;;;;;24.30;21.80;;;10.80;99.90;;;;;;5032040;28;20079;-69
2022/11/16 08:30:54;;;;;;;35.60;25.83;;;10.00;99.90;;;;;;5035952;28;20033;-70
2022/11/16 08:33:20;;;;;;;27.75;24.88;;;10.50;99.90;;;;;;5020035;28;20036;-70
2022/11/16 08:35:47;;;;;;;29.13;26.00;;;10.10;99.90;;;;;;5036469;28;20037;-70
2022/11/16 08:38:13;;;;;;;26.83;23.92;;;10.10;99.90;;;;;;5035275;28;20099;-70
2022/11/16 08:40:39;;;;;;;29.25;25.85;;;10.90;99.90;;;;;;5003457;28;20119;-70
2022/11/16 08:43:04;;;;;;;30.75;27.15;;;10.60;99.90;;;;;;5020031;28;20044;-70
2022/11/16 08:45:32;;;;;;;31.85;27.85;;;10.90;99.90;;;;;;5017068;28;20079;-70
2022/11/16 08:47:58;;;;;;;31.00;27.70;;;10.90;99.90;;;;;;5037144;28;20098;-69
2022/11/16 08:50:24;;;;;;;32.40;29.00;;;10.10;99.90;;;;;;5020706;28;20045;-70
2022/11/16 08:52:50;;;;;;;30.17;26.95;;;10.00;99.90;;;;;;5019942;28;20238;-69
2022/11/16 08:55:17;;;;;;;28.58;25.75;;;10.30;99.90;;;;;;5023500;28;20052;-69
2022/11/16 08:57:43;;;;;;;29.52;26.05;;;10.40;99.90;;;;;;5021123;28;20056;-68
2022/11/16 09:00:10;;;;;;;29.20;26.10;;;10.90;99.90;;;;;;5035601;28;20558;-70
2022/11/16 09:02:36;;;;;;;27.48;24.67;;;10.90;99.90;;;;;;5039983;28;20036;-71
2022/11/16 09:05:03;;;;;;;28.75;25.70;;;10.70;99.90;;;;;;5032532;28;20163;-68
2022/11/16 09:07:29;;;;;;;29.92;26.83;;;10.00;99.90;;;;;;5049249;28;20476;-68
2022/11/16 09:09:55;;;;;;;30.25;27.17;;;10.90;99.90;;;;;;5049263;28;20036;-68
2022/11/16 09:12:20;;;;;;;26.27;23.67;;;10.90;99.90;;;;;;5049978;28;20140;-68
2022/11/16 09:14:46;;;;;;;24.80;22.30;;;10.90;99.90;;;;;;5049040;28;20028;-69
2022/11/16 09:17:12;;;;;;;28.52;25.55;;;10.60;99.90;;;;;;5048423;28;20052;-67
2022/11/16 09:19:37;;;;;;;24.77;22.48;;;10.10;99.90;;;;;;5032484;28;20040;-67
2022/11/16 09:22:04;;;;;;;25.05;22.50;;;10.20;99.90;;;;;;5030666;28;20039;-67
2022/11/16 09:24:30;;;;;;;24.52;22.27;;;10.10;99.90;;;;;;5015347;28;20486;-67
2022/11/16 09:27:00;;;;;;;28.75;25.90;;;10.20;99.90;;;;;;5032945;28;20048;-67
2022/11/16 09:29:26;;;;;;;27.45;24.75;;;10.10;99.90;;;;;;5049355;28;20123;-67
2022/11/16 09:31:52;;;;;;;26.08;23.67;;;11.10;99.90;;;;;;5048461;28;20037;-68
2022/11/16 09:34:18;;;;;;;24.92;22.55;;;10.60;99.90;;;;;;5031746;28;20087;-67
2022/11/16 09:36:44;;;;;;;25.75;23.42;;;10.80;99.90;;;;;;5031682;28;20554;-67
2022/11/16 09:39:11;;;;;;;26.52;24.08;;;10.90;99.90;;;;;;5032314;28;20457;-67
2022/11/16 09:41:43;;;;;;;26.58;23.98;;;11.10;99.90;;;;;;5031843;28;20041;-68
2022/11/16 09:44:22;;;;;;;27.25;24.60;;;10.50;99.90;;;;;;5031976;28;20041;-68
2022/11/16 09:46:54;;;;;;;26.48;23.80;;;10.40;99.90;;;;;;5067934;28;20060;-68
2022/11/16 09:49:34;;;;;;;30.23;27.13;;;10.20;99.90;;;;;;5033402;28;20477;-69
2022/11/16 09:52:04;;;;;;;26.02;23.52;;;10.80;99.90;;;;;;5039369;28;20143;-67
2022/11/16 09:54:37;;;;;;;25.70;23.10;;;11.10;99.90;;;;;;5035697;28;20608;-68
2022/11/16 09:57:07;;;;;;;27.60;24.80;;;10.40;99.90;;;;;;5035144;28;20045;-69
2022/11/16 09:59:53;;;;;;;24.80;22.35;;;11.20;99.90;;;;;;5055206;28;20472;-69
2022/11/16 10:02:31;;;;;;;26.48;23.60;;;11.20;99.90;;;;;;5035304;28;20118;-69
2022/11/16 10:05:23;;;;;;;28.02;25.33;;;10.50;99.90;;;;;;5051735;28;20698;-67
2022/11/16 10:08:09;;;;;;;27.70;24.95;;;10.60;99.90;;;;;;5038178;28;20056;-66
2022/11/16 10:10:44;;;;;;;27.95;25.10;;;11.30;99.90;;;;;;5052313;28;20052;-68
2022/11/16 10:13:40;;;;;;;28.23;25.45;;;10.60;99.90;;;;;;5034482;28;20048;-67
2022/11/16 10:16:10;;;;;;;29.38;26.45;;;10.60;99.90;;;;;;5012218;28;20135;-67
2022/11/16 10:19:08;;;;;;;30.80;27.75;;;11.70;99.90;;;;;;5051512;28;20046;-67
2022/11/16 10:22:02;;;;;;;31.60;28.42;;;10.70;99.90;;;;;;5013355;28;20045;-68
2022/11/16 10:24:43;;;;;;;31.33;28.33;;;11.90;99.90;;;;;;5035921;28;20056;-68
2022/11/16 10:27:37;;;;;;;34.33;31.13;;;11.60;99.90;;;;;;5039710;28;20044;-68
2022/11/16 10:30:12;;;;;;;33.20;29.98;;;11.50;99.90;;;;;;5023273;28;20362;-68
2022/11/16 10:32:51;;;;;;;30.45;27.45;;;12.00;99.90;;;;;;5040287;28;20303;-68
2022/11/16 10:35:27;;;;;;;45.05;40.20;;;12.00;99.90;;;;;;5036323;28;20576;-68
2022/11/16 10:37:54;;;;;;;37.72;33.95;;;11.40;99.90;;;;;;5022799;28;20303;-69
2022/11/16 10:40:36;;;;;;;28.13;25.48;;;11.20;99.90;;;;;;5038529;28;20047;-68
2022/11/16 10:43:15;;;;;;;27.55;25.02;;;11.90;99.90;;;;;;5038488;28;20044;-68
2022/11/16 10:45:50;;;;;;;36.72;33.22;;;12.00;99.90;;;;;;5040051;28;20037;-67
2022/11/16 10:48:31;;;;;;;31.30;28.40;;;11.20;99.90;;;;;;5040245;28;20052;-68
2022/11/16 10:50:56;;;;;;;38.05;34.10;;;11.10;99.90;;;;;;5037258;28;20056;-68
2022/11/16 10:53:28;;;;;;;32.97;30.02;;;11.10;99.90;;;;;;5058761;28;20056;-69
2022/11/16 10:56:20;;;;;;;30.88;28.02;;;12.10;99.90;;;;;;5039290;28;20134;-69
2022/11/16 10:58:52;;;;;;;31.83;28.80;;;12.20;99.90;;;;;;5021835;28;20044;-69
2022/11/16 11:01:51;;;;;;;28.58;25.88;;;11.90;99.90;;;;;;5039845;28;20044;-69
2022/11/16 11:04:31;;;;;;;33.15;30.02;;;12.30;99.90;;;;;;5022961;28;20044;-69
2022/11/16 11:06:59;;;;;;;30.58;27.73;;;11.50;99.90;;;;;;5037341;28;20071;-69
2022/11/16 11:09:35;;;;;;;31.25;28.38;;;12.00;99.90;;;;;;5040217;28;20036;-70
2022/11/16 11:14:59;;;;;;;30.02;27.27;;;12.30;99.90;;;;;;5040343;28;20041;-68
2022/11/16 11:17:24;;;;;;;29.77;27.08;;;11.40;99.90;;;;;;5056561;28;20346;-68
2022/11/16 11:20:22;;;;;;;28.50;25.90;;;11.30;99.90;;;;;;5039286;28;20537;-68
2022/11/16 11:23:00;;;;;;;24.27;21.98;;;12.20;99.90;;;;;;5016455;28;20072;-68
2022/11/16 11:25:40;;;;;;;25.40;22.95;;;11.40;99.90;;;;;;5055980;28;20075;-69
2022/11/16 11:28:34;;;;;;;27.15;24.80;;;12.20;99.90;;;;;;5036912;28;20204;-69
2022/11/16 11:31:39;;;;;;;26.35;23.92;;;11.20;99.90;;;;;;5041754;28;20044;-68
2022/11/16 11:34:24;;;;;;;27.42;24.67;;;12.20;99.90;;;;;;5014353;28;20098;-69
2022/11/16 11:37:00;;;;;;;24.25;22.05;;;11.40;99.90;;;;;;5044199;28;20068;-69
2022/11/16 11:39:29;;;;;;;28.65;25.88;;;11.50;99.90;;;;;;5043847;28;20041;-68
2022/11/16 11:42:25;;;;;;;25.35;22.85;;;11.60;99.90;;;;;;5044687;28;20081;-69
2022/11/16 11:45:05;;;;;;;25.35;22.95;;;12.60;99.90;;;;;;5021237;28;20048;-69
2022/11/16 11:48:00;;;;;;;22.92;20.85;;;11.60;99.90;;;;;;5041809;28;20049;-69
2022/11/16 11:50:44;;;;;;;24.75;22.42;;;12.00;99.90;;;;;;5025614;28;20102;-69
2022/11/16 11:53:33;;;;;;;26.33;23.80;;;11.80;99.90;;;;;;5024348;28;20059;-69
2022/11/16 11:55:59;;;;;;;20.60;18.77;;;11.90;99.90;;;;;;5039095;28;20048;-68
2022/11/16 11:58:30;;;;;;;18.13;16.45;;;12.10;99.90;;;;;;5022822;28;20117;-68
2022/11/16 12:01:16;;;;;;;15.93;14.40;;;11.50;99.90;;;;;;5041204;28;20036;-68
2022/11/16 12:04:07;;;;;;;14.23;12.82;;;11.80;99.90;;;;;;5022527;28;20053;-68
2022/11/16 12:06:41;;;;;;;12.18;11.02;;;12.40;99.90;;;;;;5038950;28;20118;-68
2022/11/16 12:09:13;;;;;;;14.75;13.23;;;12.30;99.90;;;;;;5040498;28;20068;-67
2022/11/16 12:12:01;;;;;;;12.63;11.35;;;11.80;99.90;;;;;;5055045;28;20051;-66
2022/11/16 12:15:07;;;;;;;11.82;10.73;;;11.50;99.90;;;;;;5038053;28;20102;-69
2022/11/16 12:17:55;;;;;;;13.75;12.45;;;12.00;99.90;;;;;;5023120;28;20456;-68
2022/11/16 12:20:20;;;;;;;12.88;11.57;;;12.00;99.90;;;;;;5022451;28;20032;-68
2022/11/16 12:23:05;;;;;;;13.95;12.48;;;12.10;99.90;;;;;;5037310;28;20040;-68
2022/11/16 12:25:37;;;;;;;15.65;14.15;;;12.20;99.90;;;;;;5021085;28;20443;-68
2022/11/16 12:28:38;;;;;;;16.17;13.88;;;11.60;99.90;;;;;;5021332;28;20047;-68
2022/11/16 12:31:40;;;;;;;14.60;13.18;;;12.60;99.90;;;;;;5037665;28;20052;-68
2022/11/16 12:34:34;;;;;;;16.10;13.63;;;12.00;99.90;;;;;;5023698;28;20652;-68
2022/11/16 12:37:17;;;;;;;13.82;12.23;;;11.70;99.90;;;;;;5037810;28;20151;-68
2022/11/16 12:39:51;;;;;;;17.77;11.20;;;12.50;99.90;;;;;;5037563;28;20533;-68
2022/11/16 12:42:31;;;;;;;15.80;11.20;;;12.80;99.90;;;;;;5043958;28;20056;-67
2022/11/16 12:45:15;;;;;;;15.10;11.32;;;12.10;99.90;;;;;;5049641;28;20499;-68
2022/11/16 12:48:12;;;;;;;13.63;10.13;;;12.90;99.90;;;;;;5045791;28;20054;-68
2022/11/16 12:50:51;;;;;;;13.50;9.65;;;14.00;99.90;;;;;;5021852;28;20044;-69
2022/11/16 12:53:41;;;;;;;9.73;6.38;;;13.80;99.90;;;;;;5036633;28;20052;-69
2022/11/16 12:56:10;;;;;;;7.38;5.40;;;14.50;99.90;;;;;;5042454;28;20402;-67
2022/11/16 12:59:03;;;;;;;8.73;5.50;;;15.20;99.90;;;;;;5049470;28;20056;-66
2022/11/16 13:01:44;;;;;;;8.23;4.20;;;14.60;99.90;;;;;;5048815;28;20048;-67
2022/11/16 13:04:19;;;;;;;10.40;5.32;;;15.80;99.90;;;;;;5032179;28;20040;-67
2022/11/16 13:06:54;;;;;;;10.75;4.57;;;15.50;99.90;;;;;;5031822;28;20131;-67
2022/11/16 13:09:25;;;;;;;9.77;4.38;;;16.00;99.90;;;;;;5063663;28;20082;-66
2022/11/16 13:11:54;;;;;;;8.25;4.22;;;16.20;99.90;;;;;;5032065;28;20147;-69
2022/11/16 13:14:27;;;;;;;7.03;3.78;;;16.80;99.90;;;;;;5047682;28;20074;-67
2022/11/16 13:16:53;;;;;;;8.90;3.70;;;17.00;99.90;;;;;;5056218;28;20036;-68
2022/11/16 13:19:19;;;;;;;10.13;4.50;;;16.40;99.90;;;;;;4988537;28;20279;-68
2022/11/16 13:22:02;;;;;;;10.75;4.40;;;15.60;99.90;;;;;;5038662;28;20362;-68
2022/11/16 13:24:52;;;;;;;8.30;3.57;;;15.40;99.90;;;;;;5036798;28;20056;-68
2022/11/16 13:27:32;;;;;;;12.07;4.60;;;15.80;99.90;;;;;;5020736;28;20294;-68
2022/11/16 13:30:19;;;;;;;10.68;3.75;;;16.10;99.90;;;;;;5035562;28;20636;-68
2022/11/16 13:32:47;;;;;;;6.80;3.28;;;16.10;99.90;;;;;;5053245;28;20044;-67